Time;durP1;ratioP1;P1;durP2;ratioP2;P2;SDS_P1;SDS_P2;PMS_P1;PMS_P2;Temp;Humidity;BMP_temperature;BMP_pressure;BME280_temperature;BME280_humidity;BME280_pressure;Samples;Min_cycle;Max_cycle;Signal;HPM_P1;HPM_P2
2023/07/22 00:01:45;;;;;;;3.30;1.83;;;;;;;;;;5001325;28;20022;-75
2023/07/22 00:04:31;;;;;;;6.50;2.22;;;;;;;;;;5007937;28;20029;-77
2023/07/22 00:07:16;;;;;;;3.35;2.25;;;;;;;;;;4997731;28;20365;-76
2023/07/22 00:10:01;;;;;;;3.60;1.90;;;;;;;;;;5008646;28;20022;-76
2023/07/22 00:12:47;;;;;;;4.88;2.42;;;;;;;;;;5001873;28;20465;-77
2023/07/22 00:15:32;;;;;;;3.13;2.03;;;;;;;;;;5007811;28;20026;-75
2023/07/22 00:18:17;;;;;;;3.95;2.47;;;;;;;;;;5009140;28;20030;-74
2023/07/22 00:21:02;;;;;;;4.60;1.92;;;;;;;;;;4998439;28;20498;-73
2023/07/22 00:23:48;;;;;;;2.67;1.70;;;;;;;;;;4999714;28;20128;-71
2023/07/22 00:26:33;;;;;;;3.22;2.15;;;;;;;;;;5003121;28;20057;-70
2023/07/22 00:29:19;;;;;;;7.05;2.38;;;;;;;;;;5008115;28;20061;-73
2023/07/22 00:32:07;;;;;;;3.92;2.17;;;;;;;;;;5002236;28;20030;-72
2023/07/22 00:34:52;;;;;;;3.53;1.92;;;;;;;;;;5019726;28;20069;-74
2023/07/22 00:37:37;;;;;;;3.95;2.35;;;;;;;;;;5001050;28;20445;-74
2023/07/22 00:40:22;;;;;;;2.65;2.00;;;;;;;;;;5009351;28;20025;-74
2023/07/22 00:43:08;;;;;;;6.88;2.63;;;;;;;;;;4988338;28;20042;-74
2023/07/22 00:45:53;;;;;;;3.03;1.88;;;;;;;;;;5006235;28;20034;-74
2023/07/22 00:48:38;;;;;;;3.80;2.28;;;;;;;;;;5001529;28;20022;-74
2023/07/22 00:51:24;;;;;;;3.67;2.22;;;;;;;;;;5009052;28;20022;-73
2023/07/22 00:54:09;;;;;;;3.60;1.58;;;;;;;;;;5000759;28;20100;-74
2023/07/22 00:56:54;;;;;;;3.05;2.17;;;;;;;;;;5013526;28;20128;-74
2023/07/22 00:59:40;;;;;;;3.90;2.30;;;;;;;;;;5009203;28;20018;-76
2023/07/22 01:02:25;;;;;;;3.28;2.10;;;;;;;;;;4995853;28;20161;-77
2023/07/22 01:05:12;;;;;;;3.25;2.17;;;;;;;;;;4991873;28;20022;-75
2023/07/22 01:07:57;;;;;;;4.28;2.00;;;;;;;;;;4995600;28;20436;-75
2023/07/22 01:10:42;;;;;;;3.05;2.03;;;;;;;;;;4991878;28;20029;-75
2023/07/22 01:13:28;;;;;;;5.28;2.53;;;;;;;;;;5008038;28;20022;-73
2023/07/22 01:16:13;;;;;;;6.50;2.83;;;;;;;;;;5018187;28;20030;-74
2023/07/22 01:18:58;;;;;;;3.00;1.88;;;;;;;;;;4995314;28;20037;-74
2023/07/22 01:21:46;;;;;;;4.95;2.30;;;;;;;;;;4989976;28;20046;-74
2023/07/22 01:24:32;;;;;;;5.07;2.67;;;;;;;;;;5002428;28;20366;-74
2023/07/22 01:27:17;;;;;;;2.75;1.83;;;;;;;;;;4995377;28;20018;-74
2023/07/22 01:30:03;;;;;;;3.28;2.10;;;;;;;;;;5005741;28;20028;-76
2023/07/22 01:32:50;;;;;;;2.75;1.92;;;;;;;;;;5003003;28;20033;-75
2023/07/22 01:35:35;;;;;;;3.13;2.10;;;;;;;;;;5008708;28;20026;-70
2023/07/22 01:38:20;;;;;;;4.25;2.65;;;;;;;;;;4993009;28;20029;-70
2023/07/22 01:41:05;;;;;;;2.92;2.00;;;;;;;;;;5006088;28;20516;-73
2023/07/22 01:43:51;;;;;;;5.57;2.17;;;;;;;;;;5005956;28;20029;-70
2023/07/22 01:46:36;;;;;;;4.50;2.00;;;;;;;;;;5003041;28;20026;-71
2023/07/22 01:49:24;;;;;;;4.72;1.88;;;;;;;;;;4980613;28;20466;-69
2023/07/22 01:52:09;;;;;;;3.72;1.65;;;;;;;;;;5000200;28;20027;-70
2023/07/22 01:54:54;;;;;;;3.08;2.13;;;;;;;;;;4988618;28;20424;-72
2023/07/22 01:57:40;;;;;;;3.90;2.17;;;;;;;;;;4999196;28;20022;-72
2023/07/22 02:00:26;;;;;;;3.63;2.03;;;;;;;;;;5015748;28;20026;-72
2023/07/22 02:03:12;;;;;;;3.72;2.53;;;;;;;;;;4998269;28;20039;-73
2023/07/22 02:06:03;;;;;;;3.25;2.10;;;;;;;;;;5008150;28;20025;-74
2023/07/22 02:08:49;;;;;;;4.25;2.17;;;;;;;;;;4984772;28;20405;-74
2023/07/22 02:11:35;;;;;;;3.60;2.00;;;;;;;;;;4978674;28;20470;-75
2023/07/22 02:14:20;;;;;;;3.60;1.90;;;;;;;;;;5003779;28;20026;-69
2023/07/22 02:17:05;;;;;;;2.42;2.03;;;;;;;;;;5000345;28;20547;-69
2023/07/22 02:19:51;;;;;;;5.10;2.20;;;;;;;;;;4993106;28;20056;-69
2023/07/22 02:22:36;;;;;;;3.72;2.17;;;;;;;;;;4996379;28;20042;-71
2023/07/22 02:25:22;;;;;;;4.55;1.95;;;;;;;;;;4996544;28;20014;-69
2023/07/22 02:28:07;;;;;;;4.53;1.98;;;;;;;;;;4995480;28;20026;-73
2023/07/22 02:30:53;;;;;;;3.25;2.13;;;;;;;;;;5012070;28;20041;-70
2023/07/22 02:33:38;;;;;;;2.17;1.80;;;;;;;;;;4996093;28;20064;-70
2023/07/22 02:36:23;;;;;;;3.05;2.10;;;;;;;;;;5001283;28;20029;-70
2023/07/22 02:39:09;;;;;;;3.53;2.22;;;;;;;;;;4991525;28;20164;-71
2023/07/22 02:41:54;;;;;;;3.05;2.03;;;;;;;;;;5001710;28;20092;-70
2023/07/22 02:44:39;;;;;;;3.53;2.10;;;;;;;;;;5000394;28;20026;-71
2023/07/22 02:47:25;;;;;;;4.65;2.20;;;;;;;;;;5002999;28;20092;-74
2023/07/22 02:50:10;;;;;;;5.28;2.17;;;;;;;;;;4994191;28;20474;-73
2023/07/22 02:52:56;;;;;;;4.95;2.05;;;;;;;;;;5004434;28;20034;-71
2023/07/22 02:55:41;;;;;;;4.30;2.42;;;;;;;;;;5010717;28;20034;-70
2023/07/22 02:58:26;;;;;;;3.90;2.25;;;;;;;;;;5006201;28;20052;-71
2023/07/22 03:01:12;;;;;;;3.15;2.17;;;;;;;;;;5010414;28;20338;-72
2023/07/22 03:03:57;;;;;;;13.65;2.65;;;;;;;;;;5013185;28;20300;-74
2023/07/22 03:06:42;;;;;;;3.90;2.10;;;;;;;;;;5011063;28;20348;-75
2023/07/22 03:09:27;;;;;;;2.78;2.03;;;;;;;;;;4998769;28;20022;-77
2023/07/22 03:12:12;;;;;;;5.10;2.88;;;;;;;;;;4992838;28;20055;-74
2023/07/22 03:14:58;;;;;;;3.50;1.92;;;;;;;;;;4992103;28;20018;-74
2023/07/22 03:17:43;;;;;;;7.07;2.60;;;;;;;;;;4984249;28;20045;-73
2023/07/22 03:20:28;;;;;;;3.97;2.40;;;;;;;;;;5005658;28;20521;-74
2023/07/22 03:23:13;;;;;;;5.15;2.00;;;;;;;;;;5001390;28;20034;-73
2023/07/22 03:25:59;;;;;;;4.03;2.50;;;;;;;;;;5004696;28;20029;-73
2023/07/22 03:28:44;;;;;;;5.78;2.13;;;;;;;;;;4996429;28;20026;-74
2023/07/22 03:31:29;;;;;;;3.53;2.33;;;;;;;;;;4999942;28;20018;-73
2023/07/22 03:34:14;;;;;;;6.13;2.20;;;;;;;;;;5015710;28;20049;-73
2023/07/22 03:37:00;;;;;;;5.85;2.25;;;;;;;;;;5002248;28;20081;-74
2023/07/22 03:39:45;;;;;;;2.97;2.05;;;;;;;;;;4996270;28;20034;-73
2023/07/22 03:42:30;;;;;;;3.47;2.33;;;;;;;;;;5005435;28;20477;-77
2023/07/22 03:45:16;;;;;;;5.07;2.53;;;;;;;;;;4991139;28;20045;-70
2023/07/22 03:48:01;;;;;;;3.35;2.08;;;;;;;;;;5002225;28;20057;-70
2023/07/22 03:50:46;;;;;;;4.13;2.50;;;;;;;;;;5008472;28;20146;-70
2023/07/22 03:53:32;;;;;;;7.35;2.33;;;;;;;;;;4998105;28;20078;-70
2023/07/22 03:56:17;;;;;;;4.03;2.50;;;;;;;;;;4985249;28;20105;-71
2023/07/22 03:59:02;;;;;;;3.75;2.35;;;;;;;;;;5009586;28;20037;-72
2023/07/22 04:01:47;;;;;;;4.07;2.55;;;;;;;;;;5004514;28;20022;-74
2023/07/22 04:04:33;;;;;;;5.47;2.67;;;;;;;;;;5009406;28;20124;-75
2023/07/22 04:07:18;;;;;;;4.13;2.33;;;;;;;;;;5009388;28;20141;-75
2023/07/22 04:10:04;;;;;;;3.28;2.13;;;;;;;;;;4999558;28;20049;-73
2023/07/22 04:12:49;;;;;;;3.03;2.10;;;;;;;;;;5005650;28;20018;-76
2023/07/22 04:15:34;;;;;;;3.08;2.00;;;;;;;;;;5010681;28;20022;-75
2023/07/22 04:18:20;;;;;;;3.47;2.13;;;;;;;;;;4998194;28;20014;-73
2023/07/22 04:21:05;;;;;;;3.60;2.38;;;;;;;;;;5024311;28;20211;-75
2023/07/22 04:23:50;;;;;;;4.97;2.55;;;;;;;;;;5000959;28;20587;-74
2023/07/22 04:26:35;;;;;;;5.10;2.35;;;;;;;;;;5007684;28;20021;-75
2023/07/22 04:29:22;;;;;;;4.18;2.42;;;;;;;;;;5003948;28;20074;-74
2023/07/22 04:32:08;;;;;;;3.67;2.22;;;;;;;;;;5009664;28;20104;-75
2023/07/22 04:34:54;;;;;;;3.50;2.10;;;;;;;;;;5003936;28;20540;-74
2023/07/22 04:37:39;;;;;;;3.17;1.85;;;;;;;;;;5021078;28;20041;-73
2023/07/22 04:40:25;;;;;;;4.28;1.90;;;;;;;;;;5000637;28;20029;-70
2023/07/22 04:43:10;;;;;;;6.13;2.10;;;;;;;;;;5002898;28;20121;-71
2023/07/22 04:45:55;;;;;;;4.72;2.05;;;;;;;;;;5009847;28;20025;-69
2023/07/22 04:48:40;;;;;;;2.92;1.90;;;;;;;;;;4999613;28;20034;-69
2023/07/22 04:51:26;;;;;;;5.53;2.45;;;;;;;;;;5010481;28;20026;-69
2023/07/22 04:54:12;;;;;;;4.93;2.42;;;;;;;;;;4998922;28;20549;-73
2023/07/22 04:56:59;;;;;;;5.85;2.50;;;;;;;;;;5010210;28;20186;-71
2023/07/22 04:59:44;;;;;;;3.60;2.30;;;;;;;;;;4999269;28;20389;-75
2023/07/22 05:02:30;;;;;;;3.35;2.25;;;;;;;;;;4999397;28;20022;-76
2023/07/22 05:05:15;;;;;;;4.20;2.45;;;;;;;;;;4992114;28;20071;-75
2023/07/22 05:08:01;;;;;;;4.07;2.72;;;;;;;;;;5018746;28;20366;-75
2023/07/22 05:10:46;;;;;;;4.25;2.08;;;;;;;;;;5002367;28;20026;-77
2023/07/22 05:13:32;;;;;;;4.07;2.60;;;;;;;;;;5003398;28;20508;-74
2023/07/22 05:16:17;;;;;;;3.35;1.80;;;;;;;;;;4992865;28;20062;-75
2023/07/22 05:19:04;;;;;;;3.83;2.28;;;;;;;;;;4997868;28;20026;-76
2023/07/22 05:21:49;;;;;;;3.28;2.30;;;;;;;;;;4977366;28;20050;-75
2023/07/22 05:24:35;;;;;;;2.60;1.73;;;;;;;;;;4990388;28;20490;-77
2023/07/22 05:27:20;;;;;;;3.63;2.30;;;;;;;;;;5009474;28;20061;-77
2023/07/22 05:30:05;;;;;;;3.97;2.83;;;;;;;;;;5008668;28;20124;-76
2023/07/22 05:32:54;;;;;;;4.05;2.30;;;;;;;;;;5007537;28;20025;-74
2023/07/22 05:35:39;;;;;;;4.10;2.22;;;;;;;;;;5009246;28;20430;-75
2023/07/22 05:38:24;;;;;;;4.30;2.30;;;;;;;;;;5007513;28;20022;-75
2023/07/22 05:41:09;;;;;;;4.68;2.30;;;;;;;;;;5002963;28;20037;-74
2023/07/22 05:43:55;;;;;;;6.10;2.58;;;;;;;;;;5004506;28;20056;-74
2023/07/22 05:46:40;;;;;;;3.22;2.10;;;;;;;;;;5007046;28;20296;-74
2023/07/22 05:49:25;;;;;;;6.57;2.83;;;;;;;;;;5001854;28;20024;-73
2023/07/22 05:52:10;;;;;;;3.92;1.92;;;;;;;;;;5008799;28;20014;-73
2023/07/22 05:54:56;;;;;;;3.33;1.95;;;;;;;;;;5001527;28;20401;-74
2023/07/22 05:57:41;;;;;;;5.85;2.55;;;;;;;;;;5003975;28;20038;-73
2023/07/22 06:00:26;;;;;;;4.88;2.60;;;;;;;;;;5000918;28;20485;-75
2023/07/22 06:03:12;;;;;;;4.68;2.40;;;;;;;;;;4990152;28;20034;-73
2023/07/22 06:05:57;;;;;;;4.97;2.17;;;;;;;;;;5004762;28;20042;-74
2023/07/22 06:08:42;;;;;;;2.90;2.35;;;;;;;;;;5000417;28;20088;-73
2023/07/22 06:11:28;;;;;;;4.65;2.47;;;;;;;;;;5008603;28;20026;-71
2023/07/22 06:14:13;;;;;;;4.43;2.30;;;;;;;;;;5000442;28;20100;-70
2023/07/22 06:16:58;;;;;;;3.90;2.22;;;;;;;;;;5014132;28;20033;-70
2023/07/22 06:19:44;;;;;;;3.80;1.95;;;;;;;;;;4998296;28;20022;-68
2023/07/22 06:22:29;;;;;;;2.50;1.80;;;;;;;;;;5008096;28;20517;-68
2023/07/22 06:25:14;;;;;;;3.75;2.35;;;;;;;;;;4997732;28;20062;-70
2023/07/22 06:27:59;;;;;;;3.28;1.80;;;;;;;;;;5008258;28;20032;-73
2023/07/22 06:30:44;;;;;;;4.28;2.25;;;;;;;;;;4990526;28;20041;-73
2023/07/22 06:33:30;;;;;;;4.43;2.00;;;;;;;;;;5004218;28;20387;-72
2023/07/22 06:36:16;;;;;;;5.32;2.60;;;;;;;;;;5002499;28;20045;-74
2023/07/22 06:39:01;;;;;;;2.28;1.73;;;;;;;;;;5001422;28;20031;-74
2023/07/22 06:41:47;;;;;;;6.00;2.42;;;;;;;;;;5005960;28;20030;-74
2023/07/22 06:44:32;;;;;;;5.53;1.95;;;;;;;;;;5004864;28;20408;-74
2023/07/22 06:47:17;;;;;;;4.20;1.80;;;;;;;;;;5013794;28;20017;-69
2023/07/22 06:50:04;;;;;;;4.20;2.20;;;;;;;;;;4992586;28;20064;-74
2023/07/22 06:52:49;;;;;;;3.60;2.10;;;;;;;;;;4982226;28;20021;-73
2023/07/22 06:55:34;;;;;;;4.38;2.30;;;;;;;;;;5003997;28;20181;-74
2023/07/22 06:58:20;;;;;;;3.70;2.00;;;;;;;;;;5007856;28;20091;-74
2023/07/22 07:01:05;;;;;;;4.00;2.05;;;;;;;;;;5005363;28;20030;-76
2023/07/22 07:03:50;;;;;;;4.07;2.05;;;;;;;;;;4987147;28;20128;-73
2023/07/22 07:06:38;;;;;;;4.90;2.00;;;;;;;;;;4990498;28;20417;-73
2023/07/22 07:09:23;;;;;;;9.80;2.22;;;;;;;;;;4997098;28;20115;-72
2023/07/22 07:12:08;;;;;;;3.47;1.95;;;;;;;;;;5007571;28;20643;-74
2023/07/22 07:14:54;;;;;;;3.10;2.00;;;;;;;;;;5001965;28;20026;-73
2023/07/22 07:17:39;;;;;;;3.33;2.38;;;;;;;;;;4998178;28;20030;-73
2023/07/22 07:20:24;;;;;;;2.83;1.90;;;;;;;;;;5009109;28;20069;-73
2023/07/22 07:23:09;;;;;;;2.42;1.60;;;;;;;;;;5007042;28;20041;-75
2023/07/22 07:25:55;;;;;;;2.92;1.83;;;;;;;;;;5002219;28;20023;-73
2023/07/22 07:28:41;;;;;;;3.25;1.90;;;;;;;;;;5008740;28;20025;-73
2023/07/22 07:31:27;;;;;;;4.18;2.15;;;;;;;;;;4990884;28;20034;-72
2023/07/22 07:34:12;;;;;;;5.25;1.98;;;;;;;;;;5002869;28;20462;-73
2023/07/22 07:36:57;;;;;;;3.65;1.83;;;;;;;;;;4994526;28;20029;-73
2023/07/22 07:39:43;;;;;;;6.13;2.05;;;;;;;;;;5001020;28;20034;-74
2023/07/22 07:42:28;;;;;;;6.03;1.95;;;;;;;;;;5011572;28;20018;-75
2023/07/22 07:45:13;;;;;;;3.70;1.83;;;;;;;;;;4985680;28;20081;-75
2023/07/22 07:47:59;;;;;;;5.13;2.00;;;;;;;;;;4989105;28;20030;-74
2023/07/22 07:50:44;;;;;;;4.30;1.80;;;;;;;;;;5001312;28;20336;-74
2023/07/22 07:53:29;;;;;;;3.65;1.58;;;;;;;;;;5014449;28;20632;-73
2023/07/22 07:56:15;;;;;;;2.05;1.35;;;;;;;;;;4998314;28;20029;-73
2023/07/22 07:59:02;;;;;;;2.15;1.45;;;;;;;;;;5009897;28;20192;-76
2023/07/22 08:01:47;;;;;;;2.13;1.48;;;;;;;;;;4991483;28;20051;-75
2023/07/22 08:04:32;;;;;;;4.53;2.25;;;;;;;;;;4995338;28;20030;-73
2023/07/22 08:07:18;;;;;;;2.80;1.70;;;;;;;;;;5011155;28;20088;-75
2023/07/22 08:10:04;;;;;;;3.72;1.98;;;;;;;;;;5000398;28;20501;-75
2023/07/22 08:12:49;;;;;;;2.30;1.58;;;;;;;;;;5002751;28;20108;-74
2023/07/22 08:15:34;;;;;;;3.78;1.77;;;;;;;;;;5009069;28;20025;-75
2023/07/22 08:18:19;;;;;;;4.07;1.90;;;;;;;;;;4984326;28;20113;-77
2023/07/22 08:21:08;;;;;;;3.90;1.60;;;;;;;;;;5008127;28;20046;-73
2023/07/22 08:23:53;;;;;;;2.10;1.60;;;;;;;;;;5011816;28;20027;-72
2023/07/22 08:26:39;;;;;;;5.55;1.60;;;;;;;;;;5008886;28;20164;-74
2023/07/22 08:29:25;;;;;;;4.30;2.00;;;;;;;;;;4994020;28;20038;-73
2023/07/22 08:32:10;;;;;;;3.08;1.63;;;;;;;;;;4988757;28;20406;-73
2023/07/22 08:34:55;;;;;;;2.28;1.50;;;;;;;;;;5006044;28;20457;-75
2023/07/22 08:37:40;;;;;;;1.88;1.50;;;;;;;;;;5010199;28;20177;-74
2023/07/22 08:40:26;;;;;;;2.20;1.42;;;;;;;;;;5000085;28;20068;-77
2023/07/22 08:43:11;;;;;;;3.35;1.63;;;;;;;;;;5009891;28;20488;-76
2023/07/22 08:45:59;;;;;;;2.85;1.85;;;;;;;;;;5001659;28;20030;-77
2023/07/22 08:48:46;;;;;;;2.28;1.60;;;;;;;;;;4972911;28;20473;-77
2023/07/22 08:51:32;;;;;;;2.67;1.60;;;;;;;;;;5000713;28;20518;-77
2023/07/22 08:54:17;;;;;;;3.20;1.50;;;;;;;;;;5011089;28;20394;-73
2023/07/22 08:57:03;;;;;;;2.05;1.25;;;;;;;;;;5016294;28;20097;-74
2023/07/22 08:59:48;;;;;;;2.60;1.58;;;;;;;;;;4996026;28;20096;-74
2023/07/22 09:02:34;;;;;;;2.25;1.60;;;;;;;;;;4994496;28;20018;-74
2023/07/22 09:05:20;;;;;;;2.50;1.85;;;;;;;;;;5007000;28;20030;-73
2023/07/22 09:08:06;;;;;;;1.35;1.25;;;;;;;;;;4979978;28;20031;-74
2023/07/22 09:10:52;;;;;;;3.03;1.70;;;;;;;;;;4993641;28;20432;-73
2023/07/22 09:13:39;;;;;;;1.73;1.42;;;;;;;;;;5009819;28;20183;-76
2023/07/22 09:16:26;;;;;;;2.13;1.48;;;;;;;;;;4997071;28;20544;-74
2023/07/22 09:19:11;;;;;;;1.77;1.48;;;;;;;;;;5009355;28;20529;-76
2023/07/22 09:21:58;;;;;;;3.88;1.60;;;;;;;;;;4986414;28;20080;-76
2023/07/22 09:24:43;;;;;;;4.63;2.58;;;;;;;;;;4996064;28;20026;-73
2023/07/22 09:27:35;;;;;;;4.95;1.70;;;;;;;;;;5008060;28;20010;-72
2023/07/22 09:30:27;;;;;;;3.67;1.52;;;;;;;;;;5002439;28;20026;-72
2023/07/22 09:33:22;;;;;;;3.85;1.77;;;;;;;;;;5006124;28;20477;-74
2023/07/22 09:36:09;;;;;;;4.25;1.73;;;;;;;;;;4996563;28;20038;-72
2023/07/22 09:39:04;;;;;;;3.22;1.70;;;;;;;;;;4981659;28;20129;-72
2023/07/22 09:41:49;;;;;;;1.85;1.40;;;;;;;;;;5007308;28;20392;-73
2023/07/22 09:44:36;;;;;;;4.63;1.45;;;;;;;;;;5001776;28;20382;-72
2023/07/22 09:47:22;;;;;;;3.33;1.88;;;;;;;;;;5004529;28;20385;-72
2023/07/22 09:50:10;;;;;;;2.63;1.48;;;;;;;;;;5004862;28;20109;-75
2023/07/22 09:52:58;;;;;;;1.52;1.40;;;;;;;;;;4971177;28;20029;-72
2023/07/22 09:55:43;;;;;;;2.17;1.63;;;;;;;;;;5001135;28;20053;-73
2023/07/22 09:58:30;;;;;;;2.53;1.50;;;;;;;;;;5011172;28;20018;-70
2023/07/22 10:01:16;;;;;;;1.90;1.25;;;;;;;;;;5004984;28;20029;-71
2023/07/22 10:04:04;;;;;;;2.05;1.83;;;;;;;;;;4989067;28;20035;-71
2023/07/22 10:06:50;;;;;;;3.58;1.58;;;;;;;;;;5002829;28;20125;-71
2023/07/22 10:09:36;;;;;;;1.60;1.27;;;;;;;;;;4997538;28;20038;-72
2023/07/22 10:12:23;;;;;;;2.10;1.50;;;;;;;;;;4996289;28;20500;-74
2023/07/22 10:15:09;;;;;;;2.70;1.42;;;;;;;;;;4994549;28;20026;-77
2023/07/22 10:17:55;;;;;;;1.35;1.17;;;;;;;;;;5005804;28;20413;-77
2023/07/22 10:20:40;;;;;;;3.03;1.38;;;;;;;;;;5015341;28;20038;-75
2023/07/22 10:23:26;;;;;;;2.33;1.30;;;;;;;;;;4979920;28;20473;-77
2023/07/22 10:26:14;;;;;;;1.70;1.40;;;;;;;;;;4998974;28;20041;-74
2023/07/22 10:28:59;;;;;;;2.25;1.60;;;;;;;;;;5008457;28;20036;-73
2023/07/22 10:31:44;;;;;;;2.78;1.40;;;;;;;;;;5005913;28;20084;-73
2023/07/22 10:34:30;;;;;;;2.58;1.75;;;;;;;;;;5008620;28;20194;-73
2023/07/22 10:37:17;;;;;;;3.20;1.50;;;;;;;;;;4995845;28;20044;-75
2023/07/22 10:40:19;;;;;;;2.88;1.10;;;;;;;;;;4998386;28;20030;-72
2023/07/22 10:43:04;;;;;;;3.83;1.75;;;;;;;;;;5003517;28;20397;-73
2023/07/22 10:45:51;;;;;;;3.03;1.70;;;;;;;;;;5006808;28;20053;-75
2023/07/22 10:48:37;;;;;;;1.38;1.17;;;;;;;;;;5008728;28;20038;-72
2023/07/22 10:51:22;;;;;;;2.00;1.40;;;;;;;;;;5004082;28;20026;-72
2023/07/22 10:54:12;;;;;;;1.52;1.42;;;;;;;;;;5008172;28;20112;-71
2023/07/22 10:57:02;;;;;;;2.08;1.30;;;;;;;;;;5005305;28;20106;-70
2023/07/22 10:59:48;;;;;;;2.65;1.65;;;;;;;;;;5008351;28;20485;-71
2023/07/22 11:02:34;;;;;;;2.35;1.50;;;;;;;;;;4994940;28;20026;-71
2023/07/22 11:05:19;;;;;;;3.15;1.63;;;;;;;;;;5015912;28;20045;-75
2023/07/22 11:08:04;;;;;;;6.28;1.70;;;;;;;;;;4978645;28;20040;-74
2023/07/22 11:10:54;;;;;;;3.70;1.77;;;;;;;;;;4998169;28;20030;-73
2023/07/22 11:13:40;;;;;;;3.17;1.80;;;;;;;;;;5023599;28;20575;-74
2023/07/22 11:16:28;;;;;;;4.05;2.20;;;;;;;;;;4993169;28;20033;-74
2023/07/22 11:19:18;;;;;;;10.35;2.10;;;;;;;;;;5012062;28;20108;-73
2023/07/22 11:22:03;;;;;;;2.72;1.77;;;;;;;;;;4999787;28;20053;-75
2023/07/22 11:24:49;;;;;;;2.97;1.80;;;;;;;;;;4998778;28;20030;-72
2023/07/22 11:27:34;;;;;;;4.00;1.50;;;;;;;;;;5005650;28;20022;-72
2023/07/22 11:30:19;;;;;;;2.15;1.50;;;;;;;;;;5011752;28;20030;-74
2023/07/22 11:33:04;;;;;;;3.78;1.67;;;;;;;;;;5004626;28;20026;-72
2023/07/22 11:35:50;;;;;;;2.88;1.77;;;;;;;;;;5010012;28;20018;-74
2023/07/22 11:38:35;;;;;;;7.78;2.00;;;;;;;;;;5008998;28;20045;-72
2023/07/22 11:41:21;;;;;;;3.08;1.92;;;;;;;;;;4999180;28;20065;-74
2023/07/22 11:44:08;;;;;;;1.65;1.20;;;;;;;;;;5002728;28;20040;-73
2023/07/22 11:47:02;;;;;;;2.83;2.05;;;;;;;;;;4999249;28;20026;-75
2023/07/22 11:49:47;;;;;;;7.32;1.80;;;;;;;;;;5000897;28;20022;-73
2023/07/22 11:52:32;;;;;;;2.30;1.75;;;;;;;;;;4998483;28;20037;-72
2023/07/22 11:55:22;;;;;;;3.13;1.80;;;;;;;;;;5010793;28;20084;-76
2023/07/22 11:58:09;;;;;;;4.82;1.92;;;;;;;;;;4993251;28;20022;-73
2023/07/22 12:01:08;;;;;;;3.38;1.83;;;;;;;;;;4994295;28;20129;-78
2023/07/22 12:03:55;;;;;;;2.53;1.38;;;;;;;;;;4998423;28;20117;-73
2023/07/22 12:06:41;;;;;;;1.98;1.60;;;;;;;;;;5002500;28;20224;-74
2023/07/22 12:09:26;;;;;;;5.55;1.67;;;;;;;;;;5004060;28;20057;-74
2023/07/22 12:12:11;;;;;;;4.43;2.30;;;;;;;;;;5009635;28;20517;-74
2023/07/22 12:15:01;;;;;;;3.08;1.65;;;;;;;;;;5010989;28;20029;-73
2023/07/22 12:17:56;;;;;;;2.75;2.05;;;;;;;;;;5008696;28;20485;-70
2023/07/22 12:20:41;;;;;;;2.90;1.58;;;;;;;;;;5010107;28;20057;-69
2023/07/22 12:23:26;;;;;;;2.08;1.42;;;;;;;;;;4967670;28;20041;-70
2023/07/22 12:26:12;;;;;;;4.13;1.75;;;;;;;;;;5005169;28;20418;-71
2023/07/22 12:28:57;;;;;;;3.15;1.98;;;;;;;;;;5010529;28;20041;-70
2023/07/22 12:31:42;;;;;;;3.03;1.65;;;;;;;;;;5006505;28;20034;-69
2023/07/22 12:34:28;;;;;;;3.00;1.65;;;;;;;;;;5009535;28;20477;-69
2023/07/22 12:37:13;;;;;;;4.13;1.75;;;;;;;;;;4993201;28;20026;-72
2023/07/22 12:39:58;;;;;;;2.72;1.63;;;;;;;;;;5007778;28;20037;-76
2023/07/22 12:42:43;;;;;;;3.33;2.10;;;;;;;;;;5002095;28;20029;-75
2023/07/22 12:45:29;;;;;;;4.10;1.90;;;;;;;;;;5005870;28;20489;-75
2023/07/22 12:48:14;;;;;;;1.60;1.50;;;;;;;;;;5001026;28;20038;-74
2023/07/22 12:51:00;;;;;;;2.42;1.50;;;;;;;;;;5008636;28;20481;-75
2023/07/22 12:53:45;;;;;;;4.13;1.75;;;;;;;;;;4995276;28;20362;-74
2023/07/22 12:56:30;;;;;;;3.08;2.03;;;;;;;;;;5004920;28;20049;-74
2023/07/22 12:59:16;;;;;;;2.70;1.88;;;;;;;;;;4979987;28;20069;-75
2023/07/22 13:02:01;;;;;;;2.50;1.73;;;;;;;;;;5000424;28;20066;-74
2023/07/22 13:04:46;;;;;;;3.00;1.73;;;;;;;;;;5009336;28;20056;-75
2023/07/22 13:07:32;;;;;;;3.28;1.92;;;;;;;;;;4998223;28;20027;-75
2023/07/22 13:10:19;;;;;;;4.30;2.10;;;;;;;;;;5014593;28;20030;-75
2023/07/22 13:13:05;;;;;;;4.57;2.78;;;;;;;;;;5002503;28;20034;-71
2023/07/22 13:15:50;;;;;;;3.03;1.80;;;;;;;;;;4995906;28;20584;-74
2023/07/22 13:18:35;;;;;;;2.97;1.83;;;;;;;;;;4998863;28;20042;-73
2023/07/22 13:21:20;;;;;;;3.83;2.13;;;;;;;;;;5007115;28;20053;-74
2023/07/22 13:24:06;;;;;;;3.53;2.17;;;;;;;;;;4980213;28;20042;-73
2023/07/22 13:26:51;;;;;;;5.38;2.70;;;;;;;;;;4990729;28;20049;-74
2023/07/22 13:29:36;;;;;;;4.38;2.70;;;;;;;;;;5004758;28;20536;-73
2023/07/22 13:32:21;;;;;;;3.25;2.10;;;;;;;;;;4984985;28;20033;-74
2023/07/22 13:35:08;;;;;;;3.65;2.15;;;;;;;;;;5021215;28;20111;-73
2023/07/22 13:37:53;;;;;;;4.15;2.10;;;;;;;;;;5009580;28;20486;-72
2023/07/22 13:40:38;;;;;;;3.20;2.47;;;;;;;;;;4988187;28;20050;-73
2023/07/22 13:43:23;;;;;;;5.47;2.42;;;;;;;;;;5012666;28;20065;-74
2023/07/22 13:46:08;;;;;;;3.33;1.98;;;;;;;;;;4985639;28;20028;-77
2023/07/22 13:48:54;;;;;;;3.60;2.10;;;;;;;;;;5001672;28;20141;-74
2023/07/22 13:51:39;;;;;;;4.90;2.20;;;;;;;;;;4987974;28;20014;-69
2023/07/22 13:54:24;;;;;;;4.57;2.40;;;;;;;;;;4994410;28;20064;-70
2023/07/22 13:57:09;;;;;;;3.53;2.22;;;;;;;;;;5002411;28;20022;-70
2023/07/22 13:59:55;;;;;;;4.47;1.98;;;;;;;;;;5008561;28;20029;-72
2023/07/22 14:02:40;;;;;;;5.85;2.53;;;;;;;;;;5011830;28;20028;-71
2023/07/22 14:05:25;;;;;;;4.93;2.70;;;;;;;;;;5008148;28;20485;-70
2023/07/22 14:08:11;;;;;;;2.78;2.08;;;;;;;;;;5011947;28;20111;-70
2023/07/22 14:10:56;;;;;;;4.00;2.30;;;;;;;;;;5004083;28;20121;-70
2023/07/22 14:13:41;;;;;;;2.35;1.77;;;;;;;;;;4998542;28;20038;-72
2023/07/22 14:16:26;;;;;;;6.57;2.28;;;;;;;;;;5015957;28;20013;-71
2023/07/22 14:19:12;;;;;;;2.80;1.77;;;;;;;;;;4980131;28;20108;-71
2023/07/22 14:21:57;;;;;;;4.25;2.25;;;;;;;;;;5002176;28;20297;-70
2023/07/22 14:24:42;;;;;;;4.05;2.08;;;;;;;;;;4992335;28;20040;-70
2023/07/22 14:27:27;;;;;;;3.08;2.20;;;;;;;;;;5000314;28;20037;-71
2023/07/22 14:30:12;;;;;;;3.33;2.60;;;;;;;;;;4981570;28;20056;-74
2023/07/22 14:32:58;;;;;;;4.13;2.72;;;;;;;;;;4997543;28;20034;-74
2023/07/22 14:35:43;;;;;;;3.17;2.28;;;;;;;;;;5001078;28;20018;-76
2023/07/22 14:38:29;;;;;;;4.75;2.40;;;;;;;;;;4995613;28;20017;-75
2023/07/22 14:41:14;;;;;;;4.05;2.20;;;;;;;;;;5002569;28;20033;-76
2023/07/22 14:43:59;;;;;;;5.38;2.80;;;;;;;;;;4995829;28;20257;-75
2023/07/22 14:46:45;;;;;;;5.78;3.05;;;;;;;;;;5012039;28;20519;-76
2023/07/22 14:49:30;;;;;;;5.43;2.90;;;;;;;;;;5014621;28;20044;-74
2023/07/22 14:52:16;;;;;;;4.18;2.47;;;;;;;;;;5010193;28;20099;-75
2023/07/22 14:55:01;;;;;;;3.08;2.33;;;;;;;;;;5012425;28;20029;-76
2023/07/22 14:57:46;;;;;;;4.65;3.00;;;;;;;;;;5009823;28;20030;-75
2023/07/22 15:00:32;;;;;;;4.22;2.80;;;;;;;;;;5012189;28;20117;-75
2023/07/22 15:03:17;;;;;;;6.38;2.85;;;;;;;;;;4993987;28;20042;-73
2023/07/22 15:06:02;;;;;;;4.50;2.63;;;;;;;;;;5009151;28;20038;-74
2023/07/22 15:08:47;;;;;;;4.25;2.80;;;;;;;;;;5000191;28;20511;-74
2023/07/22 15:11:34;;;;;;;5.05;3.58;;;;;;;;;;4986125;28;20040;-74
2023/07/22 15:14:19;;;;;;;6.57;3.03;;;;;;;;;;5008158;28;20034;-74
2023/07/22 15:17:05;;;;;;;6.75;3.65;;;;;;;;;;5010887;28;20033;-75
2023/07/22 15:19:50;;;;;;;8.27;3.38;;;;;;;;;;5017631;28;20029;-76
2023/07/22 15:22:35;;;;;;;5.63;3.03;;;;;;;;;;5000463;28;20073;-71
2023/07/22 15:25:21;;;;;;;3.85;2.67;;;;;;;;;;4999626;28;20117;-71
2023/07/22 15:28:06;;;;;;;5.00;3.17;;;;;;;;;;5005642;28;20032;-70
2023/07/22 15:35:55;;;;;;;5.90;2.97;;;;;;;;;;5072079;22;20072;-73
2023/07/22 15:38:41;;;;;;;3.78;2.53;;;;;;;;;;5046602;28;20033;-73
2023/07/22 15:41:26;;;;;;;5.28;3.03;;;;;;;;;;5044253;28;20064;-74
2023/07/22 15:44:11;;;;;;;5.45;3.28;;;;;;;;;;5052809;28;20489;-74
2023/07/22 15:46:56;;;;;;;5.32;3.00;;;;;;;;;;5044028;28;20021;-75
2023/07/22 15:49:42;;;;;;;5.40;3.22;;;;;;;;;;5032883;28;20468;-78
2023/07/22 15:52:27;;;;;;;6.20;3.15;;;;;;;;;;5035911;28;20041;-74
2023/07/22 15:55:13;;;;;;;5.07;3.08;;;;;;;;;;5047666;28;20409;-73
2023/07/22 15:57:59;;;;;;;4.60;2.65;;;;;;;;;;5052147;28;20037;-76
2023/07/22 16:00:44;;;;;;;4.20;2.58;;;;;;;;;;5039149;28;20029;-73
2023/07/22 16:03:29;;;;;;;5.55;2.63;;;;;;;;;;5036836;28;20041;-76
2023/07/22 16:06:14;;;;;;;4.57;2.50;;;;;;;;;;5032307;28;20116;-72
2023/07/22 16:08:59;;;;;;;5.35;2.58;;;;;;;;;;5024812;28;20120;-74
2023/07/22 16:11:45;;;;;;;5.80;3.15;;;;;;;;;;5054285;28;20033;-76
2023/07/22 16:14:30;;;;;;;4.63;2.80;;;;;;;;;;5030496;28;20071;-75
2023/07/22 16:17:15;;;;;;;6.82;2.35;;;;;;;;;;5031661;28;20033;-75
2023/07/22 16:20:00;;;;;;;3.97;2.35;;;;;;;;;;5036451;28;20060;-75
2023/07/22 16:22:46;;;;;;;6.88;2.60;;;;;;;;;;5035764;28;20490;-75
2023/07/22 16:25:32;;;;;;;4.45;2.80;;;;;;;;;;5040163;28;20445;-76
2023/07/22 16:28:17;;;;;;;4.68;2.80;;;;;;;;;;5050684;28;20060;-71
2023/07/22 16:31:02;;;;;;;6.40;3.10;;;;;;;;;;5036982;28;20071;-74
2023/07/22 16:33:48;;;;;;;5.93;2.50;;;;;;;;;;5049929;28;20045;-74
2023/07/22 16:36:33;;;;;;;6.60;2.72;;;;;;;;;;5050368;28;20039;-75
2023/07/22 16:39:19;;;;;;;4.95;3.15;;;;;;;;;;5032514;28;20086;-73